Latest Weather Observations for Nerriga

IDN60801

Issued at 12:13 pm EDT Monday 26 October 2020 (issued every 10 minutes, with the page automatically refreshed every 10 minutes)

About weather observations | Map of weather stations | Latest weather observations for NSW | Other Formats
Station Details ID: 069128 Name: NERRIGA AWS Lat: -35.11 Lon: 150.08 Height: 622.0 m
Data from the previous 72 hours. | See also: Recent months at Nerriga
Date/Time
EDT
Temp
°C
App
Temp
°C
Dew
Point
°C
Rel
Hum
%
Delta-T
°C
Wind Press
QNH
hPa
Press
MSL
hPa
Rain since
9am
mm
Dir  Spd
km/h
Gust
km/h
Spd
kts
Gust
kts
26/12:00pm 9.7 6.4 9.7 100 0.0 SSE 17 30 9 16 1021.2 1020.5 1.0
26/11:30am 8.6 5.1 8.6 100 0.0 SSE 17 24 9 13 1021.3 1020.6 1.0
26/11:05am 8.6 2.9 8.5 99 0.1 SE 28 48 15 26 1021.4 1020.7 0.6
26/11:00am 8.9 3.3 8.8 99 0.1 SSE 28 41 15 22 1021.3 1020.6 0.6
26/10:30am 8.3 3.0 8.3 100 0.0 SSE 26 37 14 20 1021.1 1020.3 0.6
26/10:00am 8.0 2.6 8.0 100 0.0 SSE 26 41 14 22 1021.1 1020.3 0.6
26/09:30am 7.7 2.2 7.6 99 0.0 SSE 26 44 14 24 1021.1 1020.3 0.2
26/09:12am 7.7 1.8 7.4 98 0.1 SSE 28 52 15 28 1021.0 1020.2 0.2
26/09:00am 8.0 3.3 7.7 98 0.1 SSE 22 30 12 16 1021.0 1020.2 17.0
26/08:30am 8.5 4.9 8.4 99 0.0 S 17 28 9 15 1020.8 1020.0 16.8
26/08:00am 8.1 2.3 8.0 99 0.0 SE 28 44 15 24 1020.4 1019.6 16.2
26/07:30am 8.1 1.5 7.7 97 0.2 SE 32 46 17 25 1020.4 1019.6 14.6
26/07:23am 8.2 2.4 7.8 97 0.2 SE 28 46 15 25 1020.2 1019.5 14.6
26/07:00am 8.1 3.0 7.7 97 0.2 SSE 24 39 13 21 1020.1 1019.4 14.4
26/06:30am 8.2 3.8 7.6 96 0.3 SE 20 32 11 17 1019.8 1019.1 14.0
26/06:06am 8.2 2.2 7.1 93 0.5 SSE 28 48 15 26 1019.6 1018.8 13.4
26/06:00am 8.7 2.7 7.2 90 0.7 SE 28 39 15 21 1019.5 1018.7 12.8
26/05:30am 8.7 3.2 7.5 92 0.6 SE 26 48 14 26 1019.0 1018.2 12.8
26/05:24am 8.6 2.6 7.2 91 0.7 SSE 28 48 15 26 1018.9 1018.1 12.8
26/05:00am 8.5 2.2 7.3 92 0.6 SE 30 46 16 25 1018.8 1018.0 12.8
26/04:30am 8.5 2.5 7.0 90 0.7 SSE 28 50 15 27 1018.5 1017.8 12.6
26/04:00am 8.3 2.0 7.4 94 0.4 SE 30 48 16 26 1018.7 1017.9 12.6
26/03:40am 8.8 2.3 6.4 85 1.1 SE 30 52 16 28 1018.4 1017.7 12.6
26/03:30am 8.8 2.7 6.4 85 1.1 SE 28 43 15 23 1018.5 1017.8 12.6
26/03:00am 8.8 3.0 6.1 83 1.3 SE 26 43 14 23 1018.4 1017.7 12.6
26/02:30am 8.6 1.7 6.4 86 1.1 SE 32 43 17 23 1018.5 1017.8 12.6
26/02:00am 8.7 1.7 6.2 84 1.2 SE 32 44 17 24 1018.9 1018.1 12.6
26/01:30am 8.6 1.5 6.6 87 1.0 SE 33 54 18 29 1019.2 1018.4 12.6
26/01:24am 8.6 1.7 7.2 91 0.7 SE 33 54 18 29 1019.3 1018.5 12.6
26/01:00am 8.7 2.4 7.5 92 0.6 SE 30 46 16 25 1019.5 1018.7 12.4
26/12:30am 8.9 3.2 8.3 96 0.3 SE 28 52 15 28 1019.7 1018.9 12.2
26/12:01am 9.1 3.5 8.8 98 0.2 SE 28 48 15 26 1019.8 1019.1 11.8
26/12:00am 9.1 3.9 8.8 98 0.2 SE 26 48 14 26 1019.9 1019.2 11.8
 
Date/Time
EDT
Temp
°C
App
Temp
°C
Dew
Point
°C
Rel
Hum
%
Delta-T
°C
Wind Press
QNH
hPa
Press
MSL
hPa
Rain since
9am
mm
Dir  Spd
km/h
Gust
km/h
Spd
kts
Gust
kts
25/11:30pm 9.2 4.8 9.1 99 0.1 SSE 22 35 12 19 1019.6 1018.8 10.2
25/11:00pm 9.4 4.4 9.4 100 0.0 SE 26 37 14 20 1019.6 1018.8 9.2
25/10:30pm 9.1 4.4 9.1 100 0.0 SE 24 35 13 19 1019.6 1018.8 7.0
25/10:00pm 8.9 5.8 8.8 99 0.1 SE 15 22 8 12 1019.7 1018.9 5.8
25/09:30pm 9.0 5.2 9.0 100 0.0 ESE 19 33 10 18 1019.6 1018.8 4.8
25/09:00pm 8.9 5.7 8.6 98 0.2 SE 15 24 8 13 1019.3 1018.5 3.4
25/08:30pm 9.1 5.7 9.1 100 0.0 SE 17 28 9 15 1018.9 1018.1 2.6
25/08:00pm 8.7 5.6 8.7 100 0.0 SSE 15 20 8 11 1018.4 1017.7 2.4
25/07:30pm 8.6 6.2 8.6 100 0.0 SSE 11 17 6 9 1018.3 1017.5 2.4
25/07:00pm 8.7 5.9 8.6 99 0.1 SE 13 19 7 10 1017.8 1017.0 1.6
25/06:30pm 8.8 4.8 8.4 97 0.2 SE 19 28 10 15 1017.4 1016.6 1.0
25/06:00pm 8.7 4.7 8.1 96 0.3 SSE 19 30 10 16 1017.2 1016.4 0.6
25/05:30pm 8.7 5.0 8.1 96 0.3 SSE 17 24 9 13 1016.6 1015.8 0.4
25/05:00pm 8.8 3.8 7.9 94 0.4 SSE 24 35 13 19 1016.0 1015.2 0.4
25/04:30pm 8.7 4.0 7.6 93 0.5 SSE 22 33 12 18 1015.9 1015.1 0.4
25/04:00pm 8.7 3.6 7.6 93 0.5 SSE 24 35 13 19 1015.4 1014.5 0.4
25/03:30pm 8.8 3.7 7.6 92 0.6 SSE 24 35 13 19 1015.1 1014.3 0.4
25/03:00pm 8.9 3.9 8.0 94 0.4 SSE 24 41 13 22 1015.0 1014.2 0.4
25/02:30pm 8.7 4.0 7.9 95 0.4 SSE 22 32 12 17 1015.6 1014.7 0.4
25/02:00pm 8.6 6.2 8.5 99 0.1 SSE 11 19 6 10 1015.7 1014.9 0.4
25/01:30pm 8.3 6.2 8.2 99 0.0 SSE 9 15 5 8 1015.8 1015.0 0.4
25/01:00pm 7.8 3.9 7.2 96 0.3 S 17 24 9 13 1015.7 1014.9 0.0
25/12:30pm 8.0 4.4 6.6 91 0.7 SSE 15 22 8 12 1015.8 1015.0 0.0
25/12:00pm 8.0 4.3 6.3 89 0.8 SSE 15 22 8 12 1015.6 1014.7 0.0
25/11:30am 8.7 4.4 7.0 89 0.8 SSE 19 28 10 15 1015.5 1014.6 0.0
25/11:00am 8.4 3.6 5.5 82 1.4 SSE 20 32 11 17 1015.4 1014.5 0.0
25/10:30am 8.5 3.6 5.3 80 1.5 SSE 20 28 11 15 1015.4 1014.5 0.0
25/10:00am 8.3 3.0 5.1 80 1.5 SSE 22 35 12 19 1015.0 1014.2 0.0
25/09:30am 7.8 2.9 5.3 84 1.2 SSE 20 35 11 19 1014.7 1013.9 0.0
25/09:00am 7.9 4.2 6.4 90 0.7 SSE 15 24 8 13 1014.4 1013.6 12.6
25/08:30am 7.7 3.7 6.5 92 0.6 S 17 22 9 12 1014.1 1013.2 12.6
25/08:00am 7.5 3.9 6.8 95 0.3 SSE 15 22 8 12 1013.6 1012.7 12.6
25/07:30am 7.5 4.8 7.5 100 0.0 SSE 11 19 6 10 1013.0 1012.2 12.6
25/07:00am 7.7 4.3 7.7 100 0.0 SSE 15 24 8 13 1012.2 1011.3 12.6
25/06:30am 8.1 5.6 8.1 100 0.0 SE 11 17 6 9 1011.6 1010.8 12.6
25/06:00am 8.5 6.5 8.5 100 0.0 SE 9 15 5 8 1011.0 1010.1 12.2
25/05:30am 8.6 6.6 8.6 100 0.0 SSE 9 13 5 7 1010.5 1009.6 12.2
25/05:00am 8.6 5.8 8.6 100 0.0 SE 13 20 7 11 1010.2 1009.3 12.2
25/04:30am 8.8 6.1 8.8 100 0.0 SE 13 19 7 10 1009.6 1008.7 12.2
25/04:00am 8.9 5.4 8.9 100 0.0 ESE 17 22 9 12 1009.4 1008.5 12.2
25/03:30am 9.3 7.1 9.3 100 0.0 ESE 11 17 6 9 1009.1 1008.2 12.2
25/03:00am 9.7 7.2 9.7 100 0.0 ESE 13 19 7 10 1008.7 1007.7 12.0
25/02:30am 10.1 9.0 10.1 100 0.0 SE 6 9 3 5 1008.7 1007.7 12.0
25/02:00am 10.4 8.9 10.4 100 0.0 SE 9 11 5 6 1008.6 1007.6 11.8
25/01:30am 10.5 8.9 10.2 98 0.2 SE 9 17 5 9 1008.6 1007.6 11.6
25/01:00am 10.7 9.4 10.1 96 0.3 SE 7 13 4 7 1008.3 1007.4 11.4
25/12:30am 10.9 8.6 10.4 97 0.3 SE 13 24 7 13 1007.9 1007.0 11.4
25/12:00am 11.2 8.7 10.9 98 0.2 SSE 15 22 8 12 1007.7 1006.8 11.4
 
Date/Time
EDT
Temp
°C
App
Temp
°C
Dew
Point
°C
Rel
Hum
%
Delta-T
°C
Wind Press
QNH
hPa
Press
MSL
hPa
Rain since
9am
mm
Dir  Spd
km/h
Gust
km/h
Spd
kts
Gust
kts
24/11:30pm 10.9 8.4 10.9 100 0.0 SSE 15 22 8 12 1007.9 1007.0 11.4
24/11:00pm 11.1 7.8 10.9 99 0.1 SE 19 32 10 17 1007.9 1007.0 11.4
24/10:30pm 11.3 7.0 10.8 97 0.3 SE 24 35 13 19 1007.2 1006.2 11.4
24/10:00pm 11.5 7.3 11.0 97 0.3 SE 24 32 13 17 1007.0 1006.0 11.4
24/09:30pm 11.8 6.6 11.5 98 0.2 SE 30 43 16 23 1006.2 1005.3 11.4
24/09:00pm 13.0 10.5 12.4 96 0.3 S 17 32 9 17 1006.8 1005.8 11.2
24/08:30pm 14.9 13.0 12.9 88 1.1 WNW 15 26 8 14 1006.2 1005.3 9.8
24/08:00pm 15.3 15.8 15.1 99 0.1 NNW 6 6 3 3 1005.2 1004.2 9.8
24/07:30pm 15.6 16.7 14.6 94 0.6 NNW 2 6 1 3 1004.7 1003.8 9.8
24/07:00pm 15.6 16.6 15.3 98 0.2 NNW 4 6 2 3 1004.6 1003.7 9.8
24/06:30pm 15.8 15.9 15.6 99 0.1 NNW 9 11 5 6 1004.5 1003.6 9.8
24/06:00pm 16.1 16.8 15.5 96 0.4 NNW 6 9 3 5 1003.8 1002.8 9.8
24/05:30pm 15.9 15.7 15.7 99 0.1 NNW 11 17 6 9 1003.9 1002.9 9.8
24/05:00pm 16.0 15.2 16.0 100 0.0 NNW 15 22 8 12 1003.1 1002.2 9.8
24/04:30pm 16.4 15.8 15.6 95 0.5 NW 13 20 7 11 1003.4 1002.4 9.4
24/04:00pm 17.8 16.6 16.0 89 1.1 NW 17 26 9 14 1003.9 1002.9 8.8
24/03:30pm 18.6 16.9 16.2 86 1.5 NW 20 28 11 15 1003.7 1002.7 8.8
24/03:00pm 18.7 18.1 16.7 88 1.2 NW 15 22 8 12 1003.7 1002.7 8.8
24/02:30pm 18.1 17.3 17.0 93 0.7 NW 17 26 9 14 1003.8 1002.8 8.8
24/02:00pm 17.2 15.9 17.2 100 0.0 NW 20 28 11 15 1004.0 1003.0 8.8
24/01:30pm 16.8 15.5 16.8 100 0.0 NW 19 26 10 14 1004.6 1003.7 8.6
24/01:00pm 16.6 15.2 16.6 100 0.0 NW 19 28 10 15 1005.3 1004.3 7.6
24/12:30pm 16.6 15.6 16.6 100 0.0 NW 17 22 9 12 1005.5 1004.5 7.2
24/12:00pm 16.6 13.5 16.6 100 0.0 NW 28 41 15 22 1005.8 1004.8 4.0
24/11:40am 17.5 14.1 15.8 90 1.0 NW 28 65 15 35 1005.2 1004.2 2.4
24/11:30am 17.6 16.0 16.6 94 0.6 NW 20 33 11 18 1005.5 1004.5 2.2
24/11:00am 20.8 17.9 15.1 70 3.5 WNW 24 33 13 18 1005.3 1004.3 0.0
24/10:30am 21.1 19.3 15.6 71 3.4 NW 19 26 10 14 1005.2 1004.2 0.0
24/10:00am 20.5 19.7 16.1 76 2.7 NNW 15 22 8 12 1005.7 1004.7 0.0
24/09:30am 19.6 20.0 16.4 82 2.0 N 9 17 5 9 1005.6 1004.6 0.0
24/09:00am 18.2 17.4 15.1 82 1.9 N 13 19 7 10 1006.0 1005.1 5.2
24/08:30am 17.6 17.5 16.1 91 0.9 N 11 17 6 9 1006.1 1005.2 5.2
24/08:00am 16.2 15.4 16.0 99 0.1 N 15 19 8 10 1006.2 1005.3 5.2
24/07:30am 15.4 15.5 15.4 100 0.0 N 9 15 5 8 1006.3 1005.4 5.2
24/07:00am 14.8 15.0 14.8 100 0.0 N 7 9 4 5 1006.1 1005.2 5.2
24/06:30am 14.7 14.9 14.7 100 0.0 N 7 9 4 5 1005.7 1004.7 5.0
24/06:00am 14.8 15.0 14.8 100 0.0 N 7 11 4 6 1005.5 1004.5 5.0
24/05:30am 15.1 14.7 15.1 100 0.0 N 11 15 6 8 1005.7 1004.7 5.0
24/05:00am 15.2 14.4 15.2 100 0.0 N 13 17 7 9 1006.0 1005.1 5.0
24/04:30am 15.4 14.3 15.4 100 0.0 NNE 15 19 8 10 1006.8 1005.8 5.0
24/04:00am 15.3 15.3 15.3 100 0.0 NE 9 11 5 6 1006.9 1005.9 5.0
24/03:30am 15.2 15.2 15.2 100 0.0 NE 9 11 5 6 1006.4 1005.5 5.0
24/03:00am 15.4 13.9 15.4 100 0.0 NNE 17 22 9 12 1007.2 1006.2 5.0
24/02:30am 15.5 15.2 15.5 100 0.0 NNW 11 15 6 8 1008.9 1008.0 3.8
24/02:00am 15.8 14.0 15.5 98 0.2 NW 19 24 10 13 1009.2 1008.3 1.2
24/01:30am 15.5 15.5 14.2 92 0.8 N 7 9 4 5 1008.9 1008.0 0.6
24/01:00am 16.4 14.1 13.1 81 1.9 N 17 22 9 12 1009.0 1008.1 0.2
24/12:30am 17.2 14.9 11.9 71 3.0 N 15 28 8 15 1009.1 1008.2 0.0
24/12:00am 17.9 14.7 11.2 65 3.8 N 19 28 10 15 1009.2 1008.3 0.0
 
Date/Time
EDT
Temp
°C
App
Temp
°C
Dew
Point
°C
Rel
Hum
%
Delta-T
°C
Wind Press
QNH
hPa
Press
MSL
hPa
Rain since
9am
mm
Dir  Spd
km/h
Gust
km/h
Spd
kts
Gust
kts
23/11:30pm 18.0 15.7 11.8 67 3.5 N 15 20 8 11 1009.3 1008.4 0.0
23/11:00pm 18.9 15.9 11.9 64 4.0 N 19 26 10 14 1009.3 1008.4 0.0
23/10:30pm 19.1 16.8 11.9 63 4.1 N 15 22 8 12 1009.7 1008.8 0.0
23/10:00pm 19.3 17.9 12.3 64 4.0 N 11 17 6 9 1009.7 1008.8 0.0
23/09:30pm 19.7 18.3 12.2 62 4.3 N 11 17 6 9 1010.0 1009.1 0.0
23/09:00pm 20.2 18.8 12.2 60 4.6 N 11 20 6 11 1010.2 1009.3 0.0
23/08:30pm 20.3 19.0 12.5 61 4.5 NNE 11 22 6 12 1010.2 1009.3 0.0
23/08:00pm 20.3 18.3 12.8 62 4.4 NE 15 22 8 12 1009.9 1009.0 0.0
23/07:30pm 20.3 17.6 11.8 58 4.9 NE 17 22 9 12 1009.8 1008.9 0.0
23/07:00pm 20.9 18.6 11.8 56 5.2 NE 15 17 8 9 1009.8 1008.9 0.0
23/06:30pm 21.6 19.1 12.2 55 5.5 NE 17 22 9 12 1009.5 1008.6 0.0
23/06:00pm 22.4 19.7 12.9 55 5.6 NE 19 28 10 15 1009.2 1008.3 0.0
23/05:30pm 23.5 20.4 12.2 49 6.6 ENE 20 26 11 14 1009.1 1008.2 0.0
23/05:00pm 24.4 20.5 8.8 37 8.7 NNE 19 24 10 13 1009.0 1008.1 0.0
23/04:30pm 25.2 22.2 9.1 36 9.0 NNE 15 24 8 13 1009.4 1008.5 0.0
23/04:00pm 26.1 23.0 9.0 34 9.6 N 15 20 8 11 1009.7 1008.8 0.0
23/03:30pm 24.4 21.5 9.6 39 8.3 NNW 15 24 8 13 1009.9 1009.0 0.0
23/03:00pm 26.3 24.6 10.0 36 9.3 N 9 17 5 9 1010.4 1009.5 0.0
23/02:30pm 25.4 22.5 8.0 33 9.6 N 13 19 7 10 1010.8 1009.9 0.0
23/02:00pm 26.2 23.5 10.4 37 9.1 N 15 26 8 14 1011.3 1010.4 0.0
23/01:30pm 24.3 21.4 9.5 39 8.3 NNW 15 24 8 13 1012.0 1011.1 0.0
23/01:00pm 26.2 24.8 12.3 42 8.2 N 11 20 6 11 1012.5 1011.6 0.0
23/12:30pm 25.2 22.8 11.4 42 8.0 NNW 15 26 8 14 1012.9 1012.1 0.0

Other formats

Comma delimited format used in spreadsheet applications
http://www.bom.gov.au/fwo/IDN60801/IDN60801.94943.axf

JavaScript Object Notation format (JSON) in row-major order
http://www.bom.gov.au/fwo/IDN60801/IDN60801.94943.json

Data quality

Most of these data are generated automatically and are frequently updated. Quality checks on data are not normally performed. It is possible for incorrect values to appear. Refer to information at About Latest Weather Observations and please check the disclaimer before using these data.